Centerville, Utah
Current Conditions -  °F | °C
As of 10:53 PM on Wednesday 26 Nov 2014 (Local Time) from KSLC Reporting Station
Few Clouds Few Clouds  
Wind Chill:   Ceiling: Unl
Heat Index:   Visibility: 10mi
Dew Point: -3°   Wind: 12mph
Humidity: 51%   Direction: 120°ESE
Pressure: 30.35"   Gusts: NA
Location:  40.92°N, 111.87°W
Report Text: KSLC 270553Z 12010KT 10SM FEW200 07/M03 A3035 RMK AO2 SLP265 T00671028 10139 20061 58000
Loading
Personal Weather Stations






























Interactive Weather Map New forecast layout! Learn more

10-Day Weather Forecast

Advertisements
Track Severe Weather on mobile